Latest Weather Observations for Willis Island

IDQ60801

Issued at 9:13 pm EST Saturday 9 May 2026 (issued every 10 minutes, with the page automatically refreshed every 10 minutes)

About weather observations | Map of weather stations | Latest weather observations for QLD | Other Formats
Station Details ID: 200283 Name: WILLIS ISLAND Lat: -16.29 Lon: 149.97 Height: 9.29 m
Data from the previous 72 hours. | See also: Recent months at Willis Island
Date/Time
EST
Temp
°C
App
Temp
°C
Dew
Point
°C
Rel
Hum
%
Delta-T
°C
Wind Press
QNH
hPa
Press
MSL
hPa
Rain since
9am
mm
Dir  Spd
km/h
Gust
km/h
Spd
kts
Gust
kts
09/09:00pm 26.5 23.8 23.6 84 2.0 SE 44 54 24 29 1015.8 1015.7 3.4
09/08:30pm 26.5 23.5 23.8 85 1.9 SE 46 54 25 29 1015.6 1015.5 3.4
09/08:00pm 26.4 24.6 24.2 88 1.5 SE 41 48 22 26 1015.5 1015.4 3.4
09/07:30pm 25.8 24.1 23.8 89 1.4 SE 39 46 21 25 1015.2 1015.1 3.4
09/07:00pm 26.0 22.8 23.5 86 1.7 ESE 46 54 25 29 1014.8 1014.7 3.4
09/06:30pm 25.9 22.5 23.2 85 1.8 ESE 46 54 25 29 1014.6 1014.5 3.4
09/06:00pm 25.6 24.3 23.8 90 1.2 ESE 37 44 20 24 1014.1 1014.0 3.4
09/05:30pm 24.7 20.8 23.5 93 0.8 ESE 50 63 27 34 1014.1 1014.0 3.4
09/05:21pm 24.6 20.0 23.0 91 1.1 ESE 52 65 28 35 1014.0 1013.9 3.4
09/05:13pm 25.9 24.6 23.8 88 1.4 SE 37 61 20 33 1013.9 1013.8 3.2
09/05:00pm 25.7 23.9 23.6 88 1.4 SE 39 46 21 25 1013.8 1013.7 3.2
09/04:30pm 25.5 23.0 23.7 90 1.2 ESE 43 52 23 28 1013.7 1013.6 3.2
09/04:00pm 25.5 22.4 23.7 90 1.2 SE 46 57 25 31 1013.3 1013.2 3.2
09/03:49pm 26.6 25.1 24.1 86 1.7 SE 39 57 21 31 1013.1 1013.0 3.2
09/03:30pm 26.9 25.0 24.0 84 2.0 ESE 41 48 22 26 1012.9 1012.8 3.2
09/03:00pm 26.1 23.7 23.8 87 1.6 ESE 43 52 23 28 1012.8 1012.7 3.2
09/02:30pm 25.9 25.0 23.9 89 1.4 SE 35 50 19 27 1012.8 1012.7 3.2
09/02:00pm 26.6 25.5 24.1 86 1.7 SE 37 44 20 24 1013.1 1013.0 2.0
09/01:30pm 26.9 26.7 24.0 84 2.0 SE 32 39 17 21 1013.2 1013.1 1.8
09/01:00pm 26.3 24.6 23.8 86 1.7 SE 39 48 21 26 1013.6 1013.5 1.8
09/12:30pm 26.0 25.8 24.4 91 1.1 ESE 33 39 18 21 1013.8 1013.7 1.8
09/12:00pm 25.2 23.6 24.0 93 0.8 ESE 39 48 21 26 1014.2 1014.1 1.8
09/11:43am 26.0 24.1 23.5 86 1.7 ESE 39 54 21 29 1014.4 1014.3 0.2
09/11:30am 27.9 27.0 23.9 79 2.8 SE 35 43 19 23 1014.5 1014.4 0.2
09/11:00am 28.5 28.0 24.5 79 2.8 SE 35 41 19 22 1014.8 1014.7 0.2
09/10:30am 27.7 26.8 23.9 80 2.6 SE 35 43 19 23 1015.2 1015.1 0.2
09/10:00am 26.8 25.4 24.3 86 1.7 ESE 39 50 21 27 1015.3 1015.2 0.2
09/09:30am 27.9 26.8 24.1 80 2.6 ESE 37 44 20 24 1015.2 1015.1 0.0
09/09:00am 27.5 26.6 23.9 81 2.5 SE 35 43 19 23 1015.1 1015.0 0.4
09/08:30am 27.4 26.8 24.3 83 2.1 ESE 35 44 19 24 1014.9 1014.8 0.4
09/08:00am 27.3 26.6 24.2 83 2.1 ESE 35 43 19 23 1014.7 1014.6 0.4
09/07:30am 26.9 25.5 23.6 82 2.3 SE 37 43 20 23 1014.4 1014.3 0.2
09/07:00am 26.5 25.0 23.4 83 2.1 SE 37 43 20 23 1014.2 1014.1 0.2
09/06:30am 26.3 25.3 23.6 85 1.8 SE 35 41 19 22 1014.0 1013.9 0.2
09/06:00am 26.0 25.2 23.3 85 1.8 SE 33 41 18 22 1013.8 1013.7 0.2
09/05:30am 26.2 25.3 23.9 87 1.6 SE 35 44 19 24 1013.4 1013.3 0.2
09/05:00am 26.0 25.6 24.0 89 1.4 SE 33 41 18 22 1013.1 1013.0 0.2
09/04:30am 26.3 25.4 23.8 86 1.7 SE 35 43 19 23 1012.9 1012.8 0.2
09/04:00am 26.2 25.5 24.1 88 1.4 SE 35 39 19 21 1012.9 1012.8 0.2
09/03:30am 26.1 24.2 23.4 85 1.8 SE 39 44 21 24 1012.9 1012.8 0.2
09/03:00am 25.6 23.9 23.8 90 1.2 SE 39 46 21 25 1013.1 1013.0 0.2
09/02:30am 26.0 24.5 23.5 86 1.7 SE 37 41 20 22 1013.3 1013.2 0.2
09/02:00am 25.9 25.0 23.8 88 1.4 SE 35 43 19 23 1013.2 1013.1 0.2
09/01:30am 25.6 23.7 23.5 88 1.4 SE 39 46 21 25 1013.5 1013.4 0.2
09/01:00am 25.7 23.9 23.6 88 1.4 SE 39 46 21 25 1013.7 1013.6 0.2
09/12:30am 25.4 23.6 23.6 90 1.2 SE 39 46 21 25 1013.9 1013.8 0.2
09/12:00am 25.5 23.5 23.9 91 1.1 SE 41 48 22 26 1014.0 1013.9 0.2
 
Date/Time
EST
Temp
°C
App
Temp
°C
Dew
Point
°C
Rel
Hum
%
Delta-T
°C
Wind Press
QNH
hPa
Press
MSL
hPa
Rain since
9am
mm
Dir  Spd
km/h
Gust
km/h
Spd
kts
Gust
kts
08/11:30pm 25.2 23.5 23.8 92 1.0 SE 39 48 21 26 1014.3 1014.2 0.2
08/11:00pm 26.3 25.5 24.0 87 1.6 SE 35 41 19 22 1014.5 1014.4 0.0
08/10:30pm 26.3 24.9 23.6 85 1.8 SE 37 43 20 23 1014.6 1014.5 0.0
08/10:00pm 26.5 25.5 23.6 84 2.0 SE 35 43 19 23 1014.7 1014.6 0.0
08/09:30pm 26.5 25.2 23.8 85 1.9 SE 37 43 20 23 1014.6 1014.5 0.0
08/09:00pm 26.5 25.6 23.8 85 1.9 SE 35 43 19 23 1014.8 1014.7 0.0
08/08:30pm 26.5 25.5 23.6 84 2.0 SE 35 41 19 22 1014.5 1014.4 0.0
08/08:00pm 26.6 25.1 23.5 83 2.1 SE 37 43 20 23 1014.2 1014.1 0.0
08/07:30pm 26.6 25.4 23.9 85 1.9 SE 37 43 20 23 1013.8 1013.7 0.0
08/07:00pm 26.6 24.5 23.7 84 2.0 SE 41 46 22 25 1013.3 1013.2 0.0
08/06:30pm 26.6 25.1 23.5 83 2.1 SE 37 44 20 24 1013.1 1013.0 0.0
08/06:00pm 26.5 25.4 23.4 83 2.1 SE 35 41 19 22 1013.0 1012.9 0.0
08/05:30pm 26.8 25.6 23.9 84 2.0 SE 37 43 20 23 1012.7 1012.6 0.0
08/05:00pm 26.9 25.3 23.2 80 2.5 SE 37 43 20 23 1012.4 1012.3 0.0
08/04:30pm 27.0 25.9 23.5 81 2.4 SE 35 39 19 21 1012.3 1012.2 0.0
08/04:00pm 27.2 26.4 23.4 80 2.6 SE 33 43 18 23 1012.0 1011.9 0.0
08/03:30pm 27.2 26.2 23.0 78 2.9 SE 33 41 18 22 1012.0 1011.9 0.0
08/03:00pm 27.2 25.4 23.0 78 2.9 SE 37 43 20 23 1011.7 1011.6 0.0
08/02:30pm 27.5 26.7 23.3 78 2.9 SE 33 41 18 22 1012.0 1011.9 0.0
08/02:00pm 27.2 25.6 23.2 79 2.7 SE 37 41 20 22 1011.9 1011.8 0.0
08/01:30pm 27.3 25.6 23.1 78 2.9 ESE 37 43 20 23 1012.4 1012.3 0.0
08/01:00pm 27.3 26.2 23.5 80 2.6 SE 35 44 19 24 1012.7 1012.6 0.0
08/12:30pm 27.4 26.0 23.6 80 2.6 SE 37 44 20 24 1013.0 1012.9 0.0
08/12:00pm 28.1 27.2 24.5 81 2.5 SE 37 43 20 23 1013.4 1013.3 0.0
08/11:30am 27.5 26.4 24.1 82 2.3 SE 37 43 20 23 1013.8 1013.7 0.0
08/11:00am 27.5 26.6 23.9 81 2.5 SE 35 41 19 22 1014.2 1014.1 0.0
08/10:30am 27.9 26.4 24.1 80 2.6 SE 39 44 21 24 1014.4 1014.3 0.0
08/10:00am 27.1 25.3 23.6 81 2.4 SE 39 44 21 24 1014.7 1014.6 0.0
08/09:30am 26.9 25.6 23.8 83 2.1 SE 37 44 20 24 1014.7 1014.6 0.0
08/09:00am 26.8 25.3 23.5 82 2.3 SE 37 44 20 24 1014.3 1014.2 0.2
08/08:30am 26.8 24.8 23.9 84 2.0 SE 41 46 22 25 1013.9 1013.8 0.2
08/08:00am 26.6 24.9 23.7 84 2.0 SE 39 44 21 24 1013.7 1013.6 0.2
08/07:30am 26.4 24.5 23.5 84 2.0 SE 39 46 21 25 1013.6 1013.5 0.2
08/07:00am 26.4 24.7 23.7 85 1.9 SE 39 46 21 25 1013.1 1013.0 0.2
08/06:30am 26.4 24.4 23.9 86 1.7 SE 41 48 22 26 1012.9 1012.8 0.2
08/06:00am 26.1 24.2 23.4 85 1.8 SE 39 46 21 25 1012.5 1012.4 0.2
08/05:30am 26.1 24.0 23.8 87 1.6 SE 41 48 22 26 1012.3 1012.2 0.2
08/05:00am 26.3 24.5 23.6 85 1.8 SE 39 46 21 25 1012.5 1012.4 0.2
08/04:30am 26.2 24.3 23.5 85 1.8 SE 39 46 21 25 1012.3 1012.2 0.2
08/04:00am 26.4 24.0 23.9 86 1.7 SE 43 50 23 27 1012.0 1011.9 0.2
08/03:30am 26.1 23.3 23.2 84 2.0 SE 43 50 23 27 1011.7 1011.6 0.2
08/03:00am 26.2 23.4 23.5 85 1.8 SSE 44 52 24 28 1011.7 1011.6 0.2
08/02:30am 26.0 23.4 23.5 86 1.7 SSE 43 52 23 28 1011.7 1011.6 0.2
08/02:00am 25.9 23.2 23.6 87 1.6 SSE 44 52 24 28 1011.7 1011.6 0.0
08/01:30am 25.6 23.0 23.8 90 1.2 SSE 44 56 24 30 1012.0 1011.9 0.0
08/01:00am 25.6 23.7 24.0 91 1.1 SSE 41 48 22 26 1012.1 1012.0 0.0
08/12:30am 26.2 24.0 24.2 89 1.4 SSE 43 48 23 26 1012.2 1012.1 0.0
08/12:00am 26.2 23.8 24.2 89 1.4 SSE 44 52 24 28 1012.8 1012.7 0.0
 
Date/Time
EST
Temp
°C
App
Temp
°C
Dew
Point
°C
Rel
Hum
%
Delta-T
°C
Wind Press
QNH
hPa
Press
MSL
hPa
Rain since
9am
mm
Dir  Spd
km/h
Gust
km/h
Spd
kts
Gust
kts
07/11:30pm 25.9 23.1 23.2 85 1.8 SSE 43 50 23 27 1012.9 1012.8 0.0
07/11:00pm 26.8 25.2 23.9 84 2.0 SSE 39 44 21 24 1013.1 1013.0 0.0
07/10:30pm 26.5 24.7 23.6 84 2.0 SSE 39 46 21 25 1013.2 1013.1 0.0
07/10:00pm 26.8 25.3 24.1 85 1.9 SSE 39 43 21 23 1013.4 1013.3 0.0
07/09:30pm 26.8 25.2 23.9 84 2.0 SSE 39 46 21 25 1013.6 1013.5 0.0
07/09:00pm 26.7 25.1 24.0 85 1.9 SSE 39 44 21 24 1013.5 1013.4 0.0
07/08:30pm 26.9 26.3 24.4 86 1.7 SSE 35 43 19 23 1013.4 1013.3 0.0
07/08:00pm 27.1 26.2 23.8 82 2.3 SSE 35 41 19 22 1013.1 1013.0 0.0
07/07:30pm 26.9 26.4 23.8 83 2.1 SSE 33 39 18 21 1012.6 1012.5 0.0
07/07:00pm 26.7 26.0 23.6 83 2.1 SSE 33 39 18 21 1012.2 1012.1 0.0
07/06:30pm 26.9 26.6 23.8 83 2.1 SSE 32 35 17 19 1012.0 1011.9 0.0
07/06:00pm 27.0 27.6 23.5 81 2.4 SSE 26 30 14 16 1011.9 1011.8 0.0
07/05:30pm 27.0 27.1 23.3 80 2.5 SSE 28 32 15 17 1011.5 1011.4 0.0
07/05:00pm 27.3 26.6 23.5 80 2.6 SSE 33 37 18 20 1011.0 1010.9 0.0
07/04:30pm 27.5 27.4 22.9 76 3.1 SSE 28 33 15 18 1010.8 1010.7 0.0
07/04:00pm 27.6 26.8 22.3 73 3.6 SSE 30 35 16 19 1010.7 1010.6 0.0
07/03:30pm 27.4 28.0 23.4 79 2.7 SE 26 30 14 16 1010.7 1010.6 0.0
07/03:00pm 27.6 27.7 23.2 77 3.0 SE 28 33 15 18 1010.3 1010.2 0.0
07/02:30pm 27.6 27.6 23.0 76 3.1 SE 28 33 15 18 1010.2 1010.1 0.0
07/02:00pm 27.8 28.0 23.4 77 3.0 SE 28 32 15 17 1010.6 1010.5 0.0
07/01:30pm 27.8 28.4 23.4 77 3.0 SE 26 30 14 16 1011.0 1010.9 0.0
07/01:00pm 27.8 28.6 23.8 79 2.8 ESE 26 30 14 16 1011.5 1011.4 0.0
07/12:30pm 28.3 28.2 24.3 79 2.8 ESE 32 35 17 19 1011.8 1011.7 0.0
07/12:00pm 28.3 28.1 24.1 78 2.9 SE 32 35 17 19 1012.2 1012.1 0.0
07/11:30am 27.9 28.1 24.1 80 2.6 SE 30 33 16 18 1012.5 1012.4 0.0
07/11:00am 27.8 27.5 24.2 81 2.5 SE 33 37 18 20 1012.7 1012.6 0.0
07/10:30am 27.5 27.0 23.9 81 2.5 SE 33 41 18 22 1012.9 1012.8 0.0
07/10:00am 27.5 27.0 23.9 81 2.5 SE 33 39 18 21 1013.1 1013.0 0.0
07/09:30am 27.6 27.2 24.0 81 2.5 SE 33 39 18 21 1013.1 1013.0 0.0
07/09:00am 27.2 26.4 23.4 80 2.6 SE 33 37 18 20 1012.8 1012.7 0.0
07/08:30am 26.9 26.7 23.4 81 2.4 SE 30 35 16 19 1012.8 1012.7 0.0
07/08:00am 27.1 26.1 22.7 77 3.0 SE 32 35 17 19 1012.5 1012.4 0.0
07/07:30am 26.5 26.2 23.2 82 2.2 SE 30 35 16 19 1012.4 1012.3 0.0
07/07:00am 26.3 25.3 22.6 80 2.5 SE 32 35 17 19 1012.3 1012.2 0.0
07/06:30am 26.0 24.8 22.3 80 2.5 SE 32 35 17 19 1012.0 1011.9 0.0
07/06:00am 26.0 24.9 22.5 81 2.4 SE 32 37 17 20 1011.9 1011.8 0.0
07/05:30am 26.1 25.0 22.8 82 2.2 SE 33 37 18 20 1011.7 1011.6 0.0
07/05:00am 26.2 25.4 23.1 83 2.1 SE 32 35 17 19 1011.3 1011.2 0.0
07/04:30am 26.0 25.5 22.9 83 2.1 SE 30 33 16 18 1011.3 1011.2 0.0
07/04:00am 26.1 25.6 22.8 82 2.2 SE 30 33 16 18 1011.3 1011.2 0.0
07/03:30am 26.1 25.3 22.4 80 2.5 SE 30 32 16 17 1011.3 1011.2 0.0
07/03:00am 26.0 26.2 22.7 82 2.2 SSE 26 30 14 16 1011.4 1011.3 0.0
07/02:30am 26.0 25.8 22.7 82 2.2 SSE 28 32 15 17 1011.4 1011.3 0.0
07/02:00am 26.0 25.6 22.3 80 2.5 SSE 28 32 15 17 1011.5 1011.4 0.0
07/01:30am 25.8 24.9 22.1 80 2.5 SSE 30 35 16 19 1011.9 1011.8 0.0
07/01:00am 26.1 25.6 22.8 82 2.2 SSE 30 35 16 19 1012.1 1012.0 0.0
07/12:30am 26.1 25.5 22.6 81 2.4 SSE 30 35 16 19 1012.6 1012.5 0.0
07/12:00am 26.0 25.2 22.3 80 2.5 SE 30 33 16 18 1012.8 1012.7 0.0
 
Date/Time
EST
Temp
°C
App
Temp
°C
Dew
Point
°C
Rel
Hum
%
Delta-T
°C
Wind Press
QNH
hPa
Press
MSL
hPa
Rain since
9am
mm
Dir  Spd
km/h
Gust
km/h
Spd
kts
Gust
kts
06/11:30pm 26.2 25.2 22.7 81 2.4 SE 32 35 17 19 1012.9 1012.8 0.0
06/11:00pm 26.3 25.8 22.8 81 2.4 SE 30 33 16 18 1013.2 1013.1 0.0
06/10:30pm 26.1 25.2 22.2 79 2.6 SSE 30 35 16 19 1013.3 1013.2 0.0
06/10:00pm 26.3 25.4 22.2 78 2.8 SSE 30 33 16 18 1013.6 1013.5 0.0
06/09:30pm 26.3 25.5 22.4 79 2.6 SSE 30 33 16 18 1013.7 1013.6 0.0

Other formats

Comma delimited format used in spreadsheet applications
http://www.bom.gov.au/fwo/IDQ60801/IDQ60801.94299.axf

JavaScript Object Notation format (JSON) in row-major order
http://www.bom.gov.au/fwo/IDQ60801/IDQ60801.94299.json

Data quality

Most of these data are generated automatically and are frequently updated. Quality checks on data are not normally performed. It is possible for incorrect values to appear. Refer to information at About Latest Weather Observations and please check the disclaimer before using these data.